Coonagh Aerodrome


Codes: EICN/
Name: Coonagh Aerodrome
City: Limerick
Country: Ireland
Elevation: 6 ft.

Photos at Coonagh Aerodrome


   Photos courtesy of SpottingLog. You can add your own sightings and photos by signing up for a free trial today.



No photos found.

Weather at Coonagh Aerodrome


Time (UTC)DescriptionTempratureWindCloud coverageVisibilityPressureHumidity
19-Apr-2024 03:00Broken Clouds9°C11 mph, NW75%10000m1023hPa100%
19-Apr-2024 06:00Broken Clouds9°C11 mph, NW83%10000m1023hPa98%
19-Apr-2024 09:00Overcast Clouds11°C11 mph, NW91%10000m1024hPa89%
19-Apr-2024 12:00Light Rain15°C13 mph, NW93%10000m1024hPa71%
19-Apr-2024 15:00Light Rain15°C11 mph, NW100%10000m1025hPa78%
19-Apr-2024 18:00Light Rain13°C9 mph, N100%10000m1026hPa85%
19-Apr-2024 21:00Scattered Clouds8°C4 mph, N25%10000m1028hPa91%
20-Apr-2024 00:00Few Clouds6°C4 mph, NE20%10000m1029hPa93%
20-Apr-2024 03:00Few Clouds4°C4 mph, E22%10000m1029hPa93%
20-Apr-2024 06:00Few Clouds4°C4 mph, E24%10000m1031hPa92%
20-Apr-2024 09:00Overcast Clouds9°C4 mph, E89%10000m1031hPa78%
20-Apr-2024 12:00Overcast Clouds13°C4 mph, SE95%10000m1031hPa62%
20-Apr-2024 15:00Overcast Clouds14°C2 mph, SE100%10000m1030hPa59%
20-Apr-2024 18:00Overcast Clouds13°C2 mph, E100%10000m1031hPa76%
20-Apr-2024 21:00Overcast Clouds9°C2 mph, SE98%10000m1032hPa81%
21-Apr-2024 00:00Broken Clouds6°C2 mph, SE70%10000m1032hPa91%
21-Apr-2024 03:00Few Clouds5°C2 mph, SE17%10000m1032hPa94%
21-Apr-2024 06:00Few Clouds5°C2 mph, SE16%10000m1032hPa93%
21-Apr-2024 09:00Few Clouds11°C2 mph, SE19%10000m1033hPa79%
21-Apr-2024 12:00Few Clouds15°C2 mph, E16%10000m1033hPa66%
21-Apr-2024 15:00Few Clouds17°C2 mph, N23%10000m1032hPa64%
21-Apr-2024 18:00Broken Clouds15°C2 mph, N56%10000m1032hPa78%
21-Apr-2024 21:00Broken Clouds11°C4 mph, N68%10000m1034hPa87%
22-Apr-2024 00:00Scattered Clouds8°C2 mph, NW44%10000m1034hPa91%
22-Apr-2024 03:00Overcast Clouds7°C2 mph, NW100%10000m1034hPa94%
22-Apr-2024 06:00Overcast Clouds7°C2 mph, NW100%10000m1033hPa93%
22-Apr-2024 09:00Overcast Clouds12°C4 mph, NW100%10000m1033hPa79%
22-Apr-2024 12:00Broken Clouds16°C9 mph, NW62%10000m1032hPa68%
22-Apr-2024 15:00Broken Clouds16°C11 mph, NW70%10000m1031hPa75%
22-Apr-2024 18:00Light Rain14°C11 mph, NW84%10000m1030hPa83%
22-Apr-2024 21:00Scattered Clouds9°C7 mph, NW33%10000m1031hPa95%
23-Apr-2024 00:00Scattered Clouds7°C7 mph, NW40%10000m1031hPa97%
23-Apr-2024 03:00Overcast Clouds8°C7 mph, NW91%10000m1029hPa92%
23-Apr-2024 06:00Overcast Clouds7°C7 mph, NW95%10000m1029hPa98%
23-Apr-2024 09:00Overcast Clouds10°C11 mph, N100%10000m1028hPa82%
23-Apr-2024 12:00Overcast Clouds13°C11 mph, N100%10000m1027hPa76%
23-Apr-2024 15:00Light Rain14°C13 mph, NW100%10000m1025hPa73%
23-Apr-2024 18:00Light Rain13°C13 mph, N89%10000m1025hPa78%
23-Apr-2024 21:00Scattered Clouds10°C9 mph, N46%10000m1025hPa87%
24-Apr-2024 00:00Broken Clouds10°C4 mph, NW72%10000m1024hPa88%